createdAt,value
2023-11-20T00:00:20.673Z,1.97
2023-11-20T00:01:52.931Z,1.80
2023-11-20T00:03:26.213Z,2.07
2023-11-20T00:05:00.021Z,1.50
2023-11-20T00:06:33.200Z,1.60
2023-11-20T00:08:05.594Z,2.13
2023-11-20T00:09:38.816Z,1.87
2023-11-20T00:11:10.981Z,1.67
2023-11-20T00:12:44.098Z,1.83
2023-11-20T00:14:16.248Z,1.80
2023-11-20T00:15:49.840Z,1.87
2023-11-20T00:17:23.180Z,1.87
2023-11-20T00:18:56.322Z,1.80
2023-11-20T00:20:30.078Z,1.47
2023-11-20T00:22:03.285Z,1.53
2023-11-20T00:23:35.561Z,1.50
2023-11-20T00:25:09.339Z,1.50
2023-11-20T00:26:41.645Z,1.83
2023-11-20T00:28:16.342Z,1.60
2023-11-20T00:29:48.891Z,1.70
2023-11-20T00:31:24.016Z,1.77
2023-11-20T00:32:56.364Z,1.70
2023-11-20T00:34:29.872Z,1.83
2023-11-20T00:36:04.864Z,1.70
2023-11-20T00:37:37.987Z,1.50
2023-11-20T00:39:10.301Z,1.93
2023-11-20T00:40:44.466Z,2.00
2023-11-20T00:42:16.602Z,1.87
2023-11-20T00:43:49.809Z,2.10
2023-11-20T00:45:21.944Z,1.60
2023-11-20T00:46:55.894Z,1.83
2023-11-20T00:48:28.826Z,1.83
2023-11-20T00:50:02.168Z,1.53
2023-11-20T00:51:35.936Z,2.10
2023-11-20T00:53:09.498Z,2.00
2023-11-20T00:54:41.642Z,2.40
2023-11-20T00:56:14.799Z,1.90
2023-11-20T00:57:47.307Z,1.63
2023-11-20T00:59:20.487Z,1.77
2023-11-20T01:00:55.557Z,2.10
2023-11-20T01:02:28.894Z,1.80
2023-11-20T01:04:01.095Z,2.07
2023-11-20T01:05:34.368Z,1.77
2023-11-20T01:07:08.648Z,1.77
2023-11-20T01:08:41.809Z,1.93
2023-11-20T01:10:14.023Z,1.60
2023-11-20T01:11:47.699Z,1.80
2023-11-20T01:13:19.863Z,1.70
2023-11-20T01:14:52.988Z,1.80
2023-11-20T01:16:25.306Z,1.80
2023-11-20T01:17:58.628Z,1.43
2023-11-20T01:19:30.788Z,1.80
2023-11-20T01:21:04.213Z,1.57
2023-11-20T01:22:37.877Z,1.73
2023-11-20T01:24:11.343Z,1.47
2023-11-20T01:25:44.520Z,1.70
2023-11-20T01:27:16.981Z,1.67
2023-11-20T01:28:50.533Z,1.53
2023-11-20T01:30:22.710Z,1.63
2023-11-20T01:31:55.896Z,1.37
2023-11-20T01:33:29.298Z,1.70
2023-11-20T01:35:04.397Z,1.50
2023-11-20T01:36:37.613Z,1.57
2023-11-20T01:38:11.143Z,1.80
2023-11-20T01:39:45.154Z,1.63
2023-11-20T01:41:17.833Z,1.57
2023-11-20T01:42:51.507Z,1.50
2023-11-20T01:44:25.676Z,1.50
2023-11-20T01:46:08.034Z,1.27
2023-11-20T01:47:41.469Z,1.43
2023-11-20T01:49:13.938Z,1.63
2023-11-20T01:50:47.223Z,1.60
2023-11-20T01:52:19.683Z,1.40
2023-11-20T01:53:55.428Z,1.57
2023-11-20T01:55:27.636Z,1.43
2023-11-20T01:57:01.470Z,1.57
2023-11-20T01:58:35.293Z,1.57
2023-11-20T02:00:10.654Z,1.90
2023-11-20T02:01:46.770Z,1.67
2023-11-20T02:03:20.958Z,1.47
2023-11-20T02:04:56.413Z,1.47
2023-11-20T02:06:29.681Z,1.80
2023-11-20T02:08:03.070Z,1.40
2023-11-20T02:09:37.673Z,1.33
2023-11-20T02:11:11.032Z,1.43
2023-11-20T02:12:43.243Z,1.10
2023-11-20T02:14:17.422Z,1.40
2023-11-20T02:15:49.808Z,1.50
2023-11-20T02:17:23.032Z,1.83
2023-11-20T02:18:55.407Z,1.40
2023-11-20T02:20:28.622Z,2.10
2023-11-20T02:22:02.061Z,1.40
2023-11-20T02:23:34.412Z,1.40
2023-11-20T02:25:10.215Z,1.80
2023-11-20T02:26:52.377Z,1.60
2023-11-20T02:28:30.037Z,1.30
2023-11-20T02:30:05.609Z,1.50
2023-11-20T02:31:39.090Z,1.70
2023-11-20T02:33:12.331Z,1.37
2023-11-20T02:34:45.992Z,1.10
2023-11-20T02:36:19.121Z,1.67
2023-11-20T02:37:51.269Z,1.20
2023-11-20T02:39:24.583Z,1.53
2023-11-20T02:40:57.693Z,1.30
2023-11-20T02:42:29.934Z,1.10
2023-11-20T02:44:04.189Z,1.50
2023-11-20T02:45:38.189Z,1.37
2023-11-20T02:47:11.767Z,1.80
2023-11-20T02:48:44.633Z,1.50
2023-11-20T02:50:17.796Z,1.70
2023-11-20T02:51:51.681Z,1.87
2023-11-20T02:53:25.033Z,1.53
2023-11-20T02:54:57.292Z,1.30
2023-11-20T02:56:30.645Z,1.50
2023-11-20T02:58:02.778Z,1.17
2023-11-20T02:59:36.107Z,1.50
2023-11-20T03:01:10.536Z,1.60
2023-11-20T03:02:43.943Z,1.50
2023-11-20T03:04:16.106Z,1.37
2023-11-20T03:05:49.380Z,1.33
2023-11-20T03:07:22.090Z,1.50
2023-11-20T03:08:55.474Z,1.53
2023-11-20T03:10:28.604Z,1.43
2023-11-20T03:12:00.758Z,1.67
2023-11-20T03:13:34.315Z,1.60
2023-11-20T03:15:07.577Z,1.70
2023-11-20T03:16:42.386Z,1.60
2023-11-20T03:18:14.618Z,1.50
2023-11-20T03:19:47.766Z,1.40
2023-11-20T03:21:19.920Z,1.60
2023-11-20T03:22:53.214Z,1.33
2023-11-20T03:24:25.350Z,1.60
2023-11-20T03:25:58.821Z,1.40
2023-11-20T03:27:31.512Z,1.70
2023-11-20T03:29:06.836Z,1.40
2023-11-20T03:30:39.673Z,1.50
2023-11-20T03:32:14.806Z,1.73
2023-11-20T03:33:47.876Z,1.43
2023-11-20T03:35:22.616Z,1.33
2023-11-20T03:36:54.802Z,1.43
2023-11-20T03:38:27.982Z,1.60
2023-11-20T03:40:00.158Z,1.33
2023-11-20T03:41:33.589Z,1.57
2023-11-20T03:43:05.769Z,1.60
2023-11-20T03:44:39.381Z,1.37
2023-11-20T03:46:11.576Z,1.20
2023-11-20T03:47:46.215Z,1.40
2023-11-20T03:49:18.541Z,1.77
2023-11-20T03:50:51.645Z,1.37
2023-11-20T03:52:23.780Z,1.80
2023-11-20T03:53:56.948Z,1.37
2023-11-20T03:55:29.099Z,1.90
2023-11-20T03:57:02.294Z,1.40
2023-11-20T03:58:34.449Z,1.57
2023-11-20T04:00:09.577Z,1.60
2023-11-20T04:01:41.990Z,1.53
2023-11-20T04:03:16.507Z,1.80
2023-11-20T04:04:48.868Z,1.50
2023-11-20T04:06:22.087Z,1.40
2023-11-20T04:07:55.291Z,1.40
2023-11-20T04:09:28.396Z,1.77
2023-11-20T04:11:00.883Z,1.50
2023-11-20T04:12:34.045Z,1.50
2023-11-20T04:14:06.297Z,1.30
2023-11-20T04:15:39.520Z,1.37
2023-11-20T04:17:13.245Z,1.47
2023-11-20T04:18:47.241Z,1.70
2023-11-20T04:20:22.406Z,1.30
2023-11-20T04:21:55.029Z,1.53
2023-11-20T04:23:29.004Z,1.57
2023-11-20T04:25:01.955Z,1.43
2023-11-20T04:26:35.653Z,1.40
2023-11-20T04:28:07.875Z,1.57
2023-11-20T04:29:41.467Z,1.30
2023-11-20T04:31:13.650Z,1.47
2023-11-20T04:32:47.469Z,1.30
2023-11-20T04:34:21.155Z,1.30
2023-11-20T04:35:54.555Z,1.40
2023-11-20T04:37:27.653Z,1.30
2023-11-20T04:39:01.801Z,1.47
2023-11-20T04:40:35.110Z,1.50
2023-11-20T04:42:08.533Z,1.20
2023-11-20T04:43:40.882Z,1.57
2023-11-20T04:45:14.031Z,1.70
2023-11-20T04:46:46.218Z,1.40
2023-11-20T04:48:19.338Z,1.40
2023-11-20T04:49:52.897Z,1.50
2023-11-20T04:51:26.837Z,1.20
2023-11-20T04:52:59.128Z,1.73
2023-11-20T04:54:32.255Z,1.10
2023-11-20T04:56:08.582Z,1.40
2023-11-20T04:57:41.781Z,1.40
2023-11-20T04:59:14.193Z,1.43
2023-11-20T05:00:47.409Z,1.20
2023-11-20T05:02:19.624Z,1.27
2023-11-20T05:03:52.840Z,1.50
2023-11-20T05:05:27.168Z,1.40
2023-11-20T05:07:00.297Z,1.30
2023-11-20T05:08:32.638Z,1.60
2023-11-20T05:10:07.203Z,1.40
2023-11-20T05:11:39.932Z,1.60
2023-11-20T05:13:18.079Z,1.50
2023-11-20T05:14:50.368Z,1.60
2023-11-20T05:16:23.501Z,1.40
2023-11-20T05:17:55.858Z,1.43
2023-11-20T05:19:29.332Z,1.30
2023-11-20T05:21:03.243Z,1.57
2023-11-20T05:22:36.372Z,1.50
2023-11-20T05:24:09.334Z,1.43
2023-11-20T05:25:42.603Z,1.40
2023-11-20T05:27:14.755Z,1.40
2023-11-20T05:28:47.876Z,1.50
2023-11-20T05:30:20.247Z,1.30
2023-11-20T05:31:53.468Z,1.40
2023-11-20T05:33:25.694Z,1.40
2023-11-20T05:34:58.794Z,1.60
2023-11-20T05:36:32.607Z,1.40
2023-11-20T05:38:06.324Z,1.67
2023-11-20T05:39:40.447Z,1.50
2023-11-20T05:41:13.630Z,1.10
2023-11-20T05:42:45.814Z,2.03
2023-11-20T05:44:19.008Z,1.10
2023-11-20T05:45:51.594Z,1.33
2023-11-20T05:47:24.813Z,1.50
2023-11-20T05:48:57.030Z,1.53
2023-11-20T05:50:30.458Z,1.10
2023-11-20T05:52:05.719Z,1.20
2023-11-20T05:53:42.037Z,1.13
2023-11-20T05:55:14.368Z,1.40
2023-11-20T05:56:48.376Z,1.57
2023-11-20T05:58:20.484Z,1.27
2023-11-20T05:59:53.890Z,1.13
2023-11-20T06:01:27.472Z,1.20
2023-11-20T06:03:01.475Z,1.50
2023-11-20T06:04:33.718Z,1.20
2023-11-20T06:06:07.430Z,1.20
2023-11-20T06:07:40.936Z,1.00
2023-11-20T06:09:14.298Z,1.23
2023-11-20T06:10:46.423Z,1.20
2023-11-20T06:12:20.019Z,0.90
2023-11-20T06:13:52.491Z,1.00
2023-11-20T06:15:25.627Z,1.00
2023-11-20T06:16:57.757Z,1.20
2023-11-20T06:18:30.925Z,0.90
2023-11-20T06:20:04.847Z,1.10
2023-11-20T06:21:47.047Z,1.10
2023-11-20T06:23:20.532Z,0.77
2023-11-20T06:24:53.684Z,1.07
2023-11-20T06:26:27.127Z,0.90
2023-11-20T06:28:00.587Z,1.10
2023-11-20T06:29:33.729Z,1.10
2023-11-20T06:31:06.491Z,1.00
2023-11-20T06:32:39.761Z,0.90
2023-11-20T06:34:12.203Z,0.87
2023-11-20T06:35:45.520Z,1.00
2023-11-20T06:37:17.832Z,1.20
2023-11-20T06:38:52.435Z,0.97
2023-11-20T06:40:24.663Z,0.90
2023-11-20T06:41:57.783Z,0.70
2023-11-20T06:43:30.034Z,0.70
2023-11-20T06:45:03.467Z,0.90
2023-11-20T06:46:36.165Z,1.00
2023-11-20T06:48:10.095Z,0.80
2023-11-20T06:49:42.667Z,0.97
2023-11-20T06:51:17.803Z,0.63
2023-11-20T06:52:50.901Z,0.80
2023-11-20T06:54:24.401Z,0.70
2023-11-20T06:55:57.729Z,0.83
2023-11-20T06:57:29.885Z,0.70
2023-11-20T06:59:03.618Z,0.83
2023-11-20T07:00:35.817Z,0.67
2023-11-20T07:02:11.196Z,0.80
2023-11-20T07:03:44.649Z,0.70
2023-11-20T07:05:18.708Z,0.80
2023-11-20T07:06:51.003Z,0.60
2023-11-20T07:08:26.895Z,1.03
2023-11-20T07:10:01.742Z,0.70
2023-11-20T07:11:33.951Z,0.67
2023-11-20T07:13:07.369Z,0.70
2023-11-20T07:14:40.252Z,0.70
2023-11-20T07:16:13.732Z,0.83
2023-11-20T07:17:46.113Z,0.80
2023-11-20T07:19:19.835Z,0.80
2023-11-20T07:20:51.985Z,0.80
2023-11-20T07:22:27.279Z,0.67
2023-11-20T07:23:59.410Z,0.80
2023-11-20T07:25:35.190Z,0.73
2023-11-20T07:27:07.404Z,0.70
2023-11-20T07:28:40.729Z,0.87
2023-11-20T07:30:13.636Z,0.73
2023-11-20T07:31:46.808Z,0.60
2023-11-20T07:33:18.986Z,0.80
2023-11-20T07:34:52.770Z,0.80
2023-11-20T07:36:26.351Z,0.80
2023-11-20T07:37:58.614Z,0.77
2023-11-20T07:39:32.010Z,0.70
2023-11-20T07:41:06.185Z,0.97
2023-11-20T07:42:39.649Z,0.73
2023-11-20T07:44:11.821Z,1.00
2023-11-20T07:45:45.273Z,0.80
2023-11-20T07:47:17.820Z,1.13
2023-11-20T07:48:51.862Z,1.00
2023-11-20T07:50:24.082Z,0.77
2023-11-20T07:51:57.913Z,0.80
2023-11-20T07:53:30.325Z,0.67
2023-11-20T07:55:04.052Z,0.80
2023-11-20T07:56:37.743Z,0.90
2023-11-20T07:58:10.934Z,0.80
2023-11-20T07:59:43.203Z,0.93
2023-11-20T08:01:16.404Z,0.87
2023-11-20T08:02:50.302Z,0.80
2023-11-20T08:04:23.762Z,0.93
2023-11-20T08:05:58.000Z,0.80
2023-11-20T08:07:33.184Z,0.70
2023-11-20T08:09:08.964Z,0.83
2023-11-20T08:10:42.369Z,0.90
2023-11-20T08:12:17.525Z,0.90
2023-11-20T08:13:50.229Z,0.80
2023-11-20T08:15:23.430Z,0.83
2023-11-20T08:16:57.295Z,1.00
2023-11-20T08:18:30.428Z,0.80
2023-11-20T08:20:03.369Z,0.77
2023-11-20T08:21:36.533Z,1.00
2023-11-20T08:23:08.730Z,0.90
2023-11-20T08:24:44.277Z,0.93
2023-11-20T08:26:16.481Z,0.60
2023-11-20T08:27:51.044Z,0.90
2023-11-20T08:29:23.268Z,1.03
2023-11-20T08:30:56.415Z,0.80
2023-11-20T08:32:28.657Z,0.87
2023-11-20T08:34:01.856Z,0.90
2023-11-20T08:35:34.909Z,0.87
2023-11-20T08:37:08.098Z,1.00
2023-11-20T08:38:40.263Z,0.77
2023-11-20T08:40:16.020Z,0.97
2023-11-20T08:41:49.505Z,0.93
2023-11-20T08:43:25.114Z,1.10
2023-11-20T08:44:57.801Z,0.80
2023-11-20T08:46:31.061Z,0.83
2023-11-20T08:48:06.530Z,0.90
2023-11-20T08:49:39.838Z,0.80
2023-11-20T08:51:11.996Z,0.80
2023-11-20T08:52:45.171Z,0.90
2023-11-20T08:54:17.342Z,0.80
2023-11-20T08:55:50.657Z,0.80
2023-11-20T08:57:23.493Z,0.90
2023-11-20T08:58:58.764Z,1.00
2023-11-20T09:00:31.329Z,0.60
2023-11-20T09:02:04.621Z,1.10
2023-11-20T09:03:36.903Z,0.80
2023-11-20T09:05:11.313Z,0.70
2023-11-20T09:06:44.472Z,0.70
2023-11-20T09:08:17.758Z,0.90
2023-11-20T09:09:50.374Z,0.80
2023-11-20T09:11:23.880Z,0.70
2023-11-20T09:12:57.368Z,1.00
2023-11-20T09:14:31.091Z,0.90
2023-11-20T09:16:04.530Z,0.90
2023-11-20T09:17:37.524Z,1.00
2023-11-20T09:19:11.093Z,0.87
2023-11-20T09:20:43.525Z,0.70
2023-11-20T09:22:16.702Z,0.90
2023-11-20T09:23:48.896Z,0.83
2023-11-20T09:25:23.571Z,0.80
2023-11-20T09:26:55.820Z,0.80
2023-11-20T09:28:29.436Z,0.77
2023-11-20T09:30:05.801Z,0.77
2023-11-20T09:31:39.118Z,0.80
2023-11-20T09:33:11.416Z,0.70
2023-11-20T09:34:44.557Z,0.70
2023-11-20T09:36:16.942Z,0.80
2023-11-20T09:37:50.088Z,0.70
2023-11-20T09:39:22.259Z,0.60
2023-11-20T09:40:59.215Z,0.73
2023-11-20T09:42:32.124Z,0.73
2023-11-20T09:44:07.166Z,0.90
2023-11-20T09:45:49.831Z,0.90
2023-11-20T09:47:27.849Z,0.70
2023-11-20T09:49:00.614Z,0.90
2023-11-20T09:50:34.172Z,0.80
2023-11-20T09:52:08.557Z,0.67
2023-11-20T09:53:43.796Z,0.90
2023-11-20T09:55:18.113Z,0.70
2023-11-20T09:56:51.463Z,0.73
2023-11-20T09:58:23.711Z,1.00
2023-11-20T09:59:57.001Z,0.77
2023-11-20T10:01:31.424Z,0.70
2023-11-20T10:03:07.306Z,0.70
2023-11-20T10:04:41.029Z,0.97
2023-11-20T10:06:16.689Z,0.90
2023-11-20T10:07:50.800Z,0.73
2023-11-20T10:09:25.179Z,0.80
2023-11-20T10:11:00.112Z,0.70
2023-11-20T10:12:36.770Z,0.83
2023-11-20T10:14:09.332Z,0.93
2023-11-20T10:15:42.914Z,0.80
2023-11-20T10:17:20.769Z,1.00
2023-11-20T10:18:54.097Z,0.70
2023-11-20T10:20:27.656Z,0.80
2023-11-20T10:22:01.049Z,0.80
2023-11-20T10:23:35.364Z,0.87
2023-11-20T10:25:10.341Z,0.80
2023-11-20T10:26:43.516Z,0.60
2023-11-20T10:28:16.213Z,0.60
2023-11-20T10:29:49.342Z,0.70
2023-11-20T10:31:25.296Z,0.90
2023-11-20T10:32:59.177Z,0.87
2023-11-20T10:34:32.362Z,0.70
2023-11-20T10:36:13.077Z,0.60
2023-11-20T10:37:59.830Z,0.70
2023-11-20T10:39:32.480Z,0.70
2023-11-20T10:41:10.113Z,1.00
2023-11-20T10:42:42.262Z,0.70
2023-11-20T10:44:16.781Z,1.07
2023-11-20T10:45:51.157Z,0.80
2023-11-20T10:47:26.245Z,0.87
2023-11-20T10:49:07.254Z,0.80
2023-11-20T10:50:40.691Z,0.70
2023-11-20T10:52:20.193Z,0.90
2023-11-20T10:54:02.071Z,0.70
2023-11-20T10:55:42.854Z,1.20
2023-11-20T10:57:18.922Z,1.03
2023-11-20T10:58:54.775Z,0.80
2023-11-20T11:00:27.932Z,0.80
2023-11-20T11:02:03.212Z,0.83
2023-11-20T11:03:38.357Z,0.90
2023-11-20T11:05:14.386Z,1.17
2023-11-20T11:06:49.073Z,0.70
2023-11-20T11:08:23.190Z,0.73
2023-11-20T11:09:55.599Z,0.80
2023-11-20T11:11:31.318Z,0.90
2023-11-20T11:13:04.578Z,0.80
2023-11-20T11:14:37.972Z,0.77
2023-11-20T11:16:18.290Z,0.80
2023-11-20T11:18:00.468Z,0.90
2023-11-20T11:19:39.125Z,0.97
2023-11-20T11:21:17.715Z,0.83
2023-11-20T11:22:55.656Z,0.90
2023-11-20T11:24:33.708Z,0.73
2023-11-20T11:26:18.356Z,0.80
2023-11-20T11:27:58.126Z,0.80
2023-11-20T11:29:39.243Z,0.87
2023-11-20T11:31:16.252Z,0.67
2023-11-20T11:33:06.061Z,0.60
2023-11-20T11:35:04.746Z,0.80
2023-11-20T11:36:51.042Z,1.13
2023-11-20T11:38:31.093Z,0.90
2023-11-20T11:40:11.897Z,0.60
2023-11-20T11:41:47.149Z,0.53
2023-11-20T11:43:25.520Z,0.60
2023-11-20T11:45:05.826Z,0.60
2023-11-20T11:46:39.301Z,0.70
2023-11-20T11:48:11.905Z,0.70
2023-11-20T11:49:50.288Z,0.60
2023-11-20T11:51:25.698Z,0.90
2023-11-20T11:53:01.387Z,0.50
2023-11-20T11:54:33.834Z,0.50
2023-11-20T11:56:15.418Z,0.93
2023-11-20T11:57:52.293Z,0.60
2023-11-20T11:59:34.919Z,0.70
2023-11-20T12:01:17.504Z,0.60
2023-11-20T12:03:02.199Z,0.60
2023-11-20T12:05:09.884Z,0.63
2023-11-20T12:06:43.186Z,0.80
2023-11-20T12:08:16.663Z,0.60
2023-11-20T12:09:57.008Z,0.70
2023-11-20T12:11:50.671Z,0.70
2023-11-20T12:13:24.914Z,0.70
2023-11-20T12:14:57.344Z,0.50
2023-11-20T12:16:38.310Z,0.60
2023-11-20T12:18:14.266Z,0.50
2023-11-20T12:19:49.893Z,0.50
2023-11-20T12:21:23.796Z,0.50
2023-11-20T12:22:57.598Z,0.67
2023-11-20T12:24:32.076Z,0.50
2023-11-20T12:26:05.297Z,0.60
2023-11-20T12:27:41.625Z,0.60
2023-11-20T12:29:15.880Z,0.70
2023-11-20T12:30:49.522Z,0.50
2023-11-20T12:32:22.792Z,0.60
2023-11-20T12:33:57.554Z,0.87
2023-11-20T12:35:30.076Z,0.53
2023-11-20T12:37:03.495Z,0.60
2023-11-20T12:38:37.329Z,0.70
2023-11-20T12:40:13.846Z,0.50
2023-11-20T12:41:48.210Z,0.70
2023-11-20T12:43:20.727Z,0.70
2023-11-20T12:44:54.196Z,0.70
2023-11-20T12:46:28.253Z,0.70
2023-11-20T12:48:01.536Z,0.87
2023-11-20T12:49:33.705Z,0.80
2023-11-20T12:51:08.909Z,0.73
2023-11-20T12:52:43.105Z,0.80
2023-11-20T12:54:16.430Z,0.77
2023-11-20T12:55:52.207Z,0.70
2023-11-20T12:57:25.674Z,0.83
2023-11-20T12:58:59.280Z,0.47
2023-11-20T13:00:31.628Z,0.60
2023-11-20T13:02:10.181Z,0.60
2023-11-20T13:03:42.523Z,0.80
2023-11-20T13:05:15.875Z,0.70
2023-11-20T13:06:49.337Z,0.50
2023-11-20T13:08:24.175Z,0.70
2023-11-20T13:09:57.855Z,0.60
2023-11-20T13:11:37.494Z,0.70
2023-11-20T13:13:12.796Z,0.70
2023-11-20T13:14:59.985Z,0.63
2023-11-20T13:16:33.992Z,0.80
2023-11-20T13:18:07.859Z,0.77
2023-11-20T13:19:40.830Z,0.60
2023-11-20T13:21:21.751Z,0.80
2023-11-20T13:22:53.949Z,0.50
2023-11-20T13:24:27.199Z,0.57
2023-11-20T13:26:06.268Z,0.70
2023-11-20T13:27:41.670Z,0.77
2023-11-20T13:29:13.807Z,0.90
2023-11-20T13:31:01.673Z,0.50
2023-11-20T13:32:35.393Z,0.80
2023-11-20T13:34:09.438Z,0.60
2023-11-20T13:35:41.888Z,0.60
2023-11-20T13:37:15.509Z,0.60
2023-11-20T13:38:48.354Z,0.60
2023-11-20T13:40:21.848Z,0.87
2023-11-20T13:41:58.416Z,0.80
2023-11-20T13:43:32.333Z,1.00
2023-11-20T13:45:07.547Z,0.80
2023-11-20T13:46:43.171Z,1.07
2023-11-20T13:48:19.205Z,0.87
2023-11-20T13:49:51.473Z,0.90
2023-11-20T13:51:24.649Z,0.80
2023-11-20T13:52:57.437Z,0.90
2023-11-20T13:54:30.550Z,0.87
2023-11-20T13:56:02.874Z,0.70
2023-11-20T13:57:36.438Z,0.83
2023-11-20T13:59:10.596Z,0.80
2023-11-20T14:00:44.326Z,1.10
2023-11-20T14:02:17.072Z,0.87
2023-11-20T14:03:50.716Z,0.90
2023-11-20T14:05:22.952Z,0.70
2023-11-20T14:06:56.258Z,0.93
2023-11-20T14:08:32.119Z,1.00
2023-11-20T14:10:10.920Z,0.90
2023-11-20T14:11:44.166Z,1.00
2023-11-20T14:13:17.560Z,1.10
2023-11-20T14:14:51.140Z,1.07
2023-11-20T14:16:24.383Z,0.97
2023-11-20T14:17:57.099Z,1.27
2023-11-20T14:19:31.043Z,1.30
2023-11-20T14:21:04.228Z,1.10
2023-11-20T14:22:37.367Z,1.00
2023-11-20T14:24:10.106Z,0.90
2023-11-20T14:26:00.313Z,0.70
2023-11-20T14:27:37.223Z,1.00
2023-11-20T14:29:09.653Z,1.00
2023-11-20T14:30:44.202Z,1.00
2023-11-20T14:32:16.556Z,0.90
2023-11-20T14:33:49.688Z,0.83
2023-11-20T14:35:23.026Z,1.20
2023-11-20T14:36:55.276Z,1.00
2023-11-20T14:38:28.517Z,0.90
2023-11-20T14:40:01.380Z,1.23
2023-11-20T14:41:34.661Z,1.10
2023-11-20T14:43:06.921Z,1.20
2023-11-20T14:44:40.396Z,1.43
2023-11-20T14:46:14.241Z,1.47
2023-11-20T14:47:48.500Z,1.30
2023-11-20T14:49:21.003Z,1.30
2023-11-20T14:50:54.183Z,1.37
2023-11-20T14:52:26.704Z,1.50
2023-11-20T14:54:02.319Z,1.43
2023-11-20T14:55:34.689Z,1.10
2023-11-20T14:57:08.365Z,1.07
2023-11-20T14:58:40.682Z,1.27
2023-11-20T15:00:15.853Z,1.10
2023-11-20T15:01:52.036Z,1.07
2023-11-20T15:03:26.124Z,1.40
2023-11-20T15:04:58.682Z,1.00
2023-11-20T15:06:32.012Z,1.40
2023-11-20T15:08:05.766Z,0.90
2023-11-20T15:09:39.188Z,1.47
2023-11-20T15:11:11.581Z,1.03
2023-11-20T15:12:45.827Z,1.20
2023-11-20T15:14:18.778Z,2.00
2023-11-20T15:15:52.037Z,2.40
2023-11-20T15:17:25.584Z,2.27
2023-11-20T15:18:58.764Z,2.50
2023-11-20T15:20:32.584Z,2.53
2023-11-20T15:22:06.819Z,2.17
2023-11-20T15:23:40.388Z,1.97
2023-11-20T15:25:13.197Z,1.60
2023-11-20T15:26:48.669Z,1.80
2023-11-20T15:28:22.019Z,1.40
2023-11-20T15:29:55.179Z,1.50
2023-11-20T15:31:27.377Z,1.30
2023-11-20T15:33:03.407Z,1.20
2023-11-20T15:34:35.705Z,1.30
2023-11-20T15:36:09.731Z,1.40
2023-11-20T15:37:42.045Z,1.60
2023-11-20T15:39:16.801Z,1.50
2023-11-20T15:40:50.769Z,1.23
2023-11-20T15:42:23.901Z,1.40
2023-11-20T15:43:56.090Z,1.50
2023-11-20T15:45:29.653Z,1.20
2023-11-20T15:47:01.868Z,1.67
2023-11-20T15:48:36.653Z,1.73
2023-11-20T15:50:11.367Z,1.20
2023-11-20T15:51:45.648Z,1.80
2023-11-20T15:53:18.370Z,3.77
2023-11-20T15:54:52.731Z,3.40
2023-11-20T15:56:26.063Z,3.07
2023-11-20T15:57:59.269Z,3.10
2023-11-20T15:59:32.406Z,3.03
2023-11-20T16:01:05.139Z,2.83
2023-11-20T16:02:40.234Z,2.83
2023-11-20T16:04:14.939Z,3.83
2023-11-20T16:05:47.244Z,3.33
2023-11-20T16:07:20.498Z,3.23
2023-11-20T16:08:52.653Z,2.80
2023-11-20T16:10:25.811Z,3.03
2023-11-20T16:11:57.953Z,3.00
2023-11-20T16:13:31.144Z,2.73
2023-11-20T16:15:05.471Z,2.60
2023-11-20T16:16:39.436Z,2.40
2023-11-20T16:18:12.033Z,2.50
2023-11-20T16:19:46.742Z,2.60
2023-11-20T16:21:19.003Z,2.57
2023-11-20T16:22:53.496Z,2.50
2023-11-20T16:24:26.375Z,2.90
2023-11-20T16:25:59.549Z,2.70
2023-11-20T16:27:31.820Z,2.37
2023-11-20T16:29:05.471Z,2.50
2023-11-20T16:30:37.940Z,2.60
2023-11-20T16:32:11.668Z,2.53
2023-11-20T16:33:43.791Z,2.50
2023-11-20T16:35:22.635Z,2.30
2023-11-20T16:36:55.762Z,2.27
2023-11-20T16:38:30.271Z,2.10
2023-11-20T16:40:02.627Z,2.00
2023-11-20T16:41:36.448Z,2.43
2023-11-20T16:43:08.842Z,1.97
2023-11-20T16:44:42.806Z,1.80
2023-11-20T16:46:15.323Z,2.03
2023-11-20T16:47:48.711Z,2.00
2023-11-20T16:49:21.018Z,2.00
2023-11-20T16:50:55.666Z,1.67
2023-11-20T16:52:30.117Z,1.90
2023-11-20T16:54:03.867Z,2.07
2023-11-20T16:55:36.150Z,2.10
2023-11-20T16:57:12.026Z,1.80
2023-11-20T16:58:45.113Z,2.70
2023-11-20T17:00:20.611Z,2.80
2023-11-20T17:01:53.873Z,3.20
2023-11-20T17:03:26.112Z,2.93
2023-11-20T17:04:59.654Z,2.60
2023-11-20T17:06:33.190Z,3.00
2023-11-20T17:08:06.967Z,2.53
2023-11-20T17:09:39.084Z,2.30
2023-11-20T17:11:12.423Z,2.37
2023-11-20T17:12:44.550Z,2.27
2023-11-20T17:14:17.735Z,4.60
2023-11-20T17:15:49.928Z,4.27
2023-11-20T17:17:23.150Z,4.87
2023-11-20T17:18:56.331Z,4.63
2023-11-20T17:20:28.659Z,3.93
2023-11-20T17:22:03.161Z,3.60
2023-11-20T17:23:35.389Z,3.70
2023-11-20T17:25:08.979Z,2.90
2023-11-20T17:26:41.117Z,2.90
2023-11-20T17:28:14.340Z,3.10
2023-11-20T17:29:46.574Z,5.30
2023-11-20T17:31:20.228Z,4.57
2023-11-20T17:32:53.547Z,4.10
2023-11-20T17:34:25.945Z,3.87
2023-11-20T17:35:59.320Z,3.97
2023-11-20T17:37:32.845Z,3.30
2023-11-20T17:39:06.417Z,2.53
2023-11-20T17:40:40.670Z,2.30
2023-11-20T17:42:15.391Z,1.80
2023-11-20T17:43:48.105Z,1.80
2023-11-20T17:45:21.537Z,2.13
2023-11-20T17:46:53.787Z,2.63
2023-11-20T17:48:27.588Z,2.60
2023-11-20T17:49:59.872Z,2.63
2023-11-20T17:51:33.177Z,2.07
2023-11-20T17:53:07.660Z,2.13
2023-11-20T17:54:39.981Z,2.10
2023-11-20T17:56:13.369Z,2.27
2023-11-20T17:57:45.594Z,2.20
2023-11-20T17:59:19.290Z,2.33
2023-11-20T18:00:51.633Z,2.03
2023-11-20T18:02:25.208Z,1.90
2023-11-20T18:03:58.239Z,2.50
2023-11-20T18:05:31.626Z,2.13
2023-11-20T18:07:04.602Z,2.00
2023-11-20T18:08:39.088Z,1.93
2023-11-20T18:10:12.646Z,2.07
2023-11-20T18:11:46.142Z,2.00
2023-11-20T18:13:18.372Z,1.60
2023-11-20T18:14:53.015Z,2.20
2023-11-20T18:16:25.192Z,1.80
2023-11-20T18:17:59.276Z,1.90
2023-11-20T18:19:32.089Z,1.80
2023-11-20T18:21:05.690Z,2.10
2023-11-20T18:22:39.319Z,2.37
2023-11-20T18:24:15.356Z,2.40
2023-11-20T18:25:49.538Z,2.40
2023-11-20T18:27:23.134Z,1.90
2023-11-20T18:28:55.242Z,2.20
2023-11-20T18:30:28.405Z,2.07
2023-11-20T18:32:00.643Z,2.27
2023-11-20T18:33:33.812Z,2.57
2023-11-20T18:35:06.666Z,2.30
2023-11-20T18:36:39.855Z,2.30
2023-11-20T18:38:13.641Z,2.37
2023-11-20T18:39:48.148Z,2.30
2023-11-20T18:41:20.281Z,2.70
2023-11-20T18:42:54.319Z,2.60
2023-11-20T18:44:26.782Z,2.60
2023-11-20T18:46:02.866Z,2.40
2023-11-20T18:47:35.149Z,2.50
2023-11-20T18:49:08.396Z,2.50
2023-11-20T18:50:41.509Z,2.40
2023-11-20T18:52:14.388Z,3.30
2023-11-20T18:53:49.898Z,2.80
2023-11-20T18:55:25.991Z,3.87
2023-11-20T18:56:59.111Z,3.47
2023-11-20T18:58:31.567Z,3.43
2023-11-20T19:00:07.279Z,3.53
2023-11-20T19:01:39.769Z,3.90
2023-11-20T19:03:13.023Z,3.50
2023-11-20T19:04:46.240Z,3.37
2023-11-20T19:06:20.806Z,3.80
2023-11-20T19:07:55.318Z,3.70
2023-11-20T19:09:27.520Z,3.77
2023-11-20T19:11:02.034Z,3.63
2023-11-20T19:12:34.181Z,3.47
2023-11-20T19:14:08.454Z,3.57
2023-11-20T19:15:41.563Z,3.63
2023-11-20T19:17:14.157Z,3.60
2023-11-20T19:18:47.452Z,3.57
2023-11-20T19:20:20.652Z,3.83
2023-11-20T19:21:52.802Z,3.40
2023-11-20T19:23:25.941Z,3.50
2023-11-20T19:25:01.005Z,3.40
2023-11-20T19:26:34.622Z,4.03
2023-11-20T19:28:07.759Z,3.80
2023-11-20T19:29:42.232Z,3.70
2023-11-20T19:31:15.471Z,5.70
2023-11-20T19:32:48.293Z,6.47
2023-11-20T19:34:21.658Z,5.40
2023-11-20T19:35:54.081Z,5.37
2023-11-20T19:37:27.603Z,5.20
2023-11-20T19:38:59.777Z,5.50
2023-11-20T19:40:33.041Z,4.83
2023-11-20T19:42:06.849Z,4.73
2023-11-20T19:43:40.050Z,5.03
2023-11-20T19:45:13.893Z,4.77
2023-11-20T19:46:47.393Z,4.90
2023-11-20T19:48:20.099Z,3.90
2023-11-20T19:49:53.307Z,4.67
2023-11-20T19:51:25.423Z,4.20
2023-11-20T19:52:58.652Z,4.77
2023-11-20T19:54:31.132Z,4.20
2023-11-20T19:56:04.625Z,4.20
2023-11-20T19:57:38.180Z,4.70
2023-11-20T19:59:12.276Z,4.37
2023-11-20T20:00:44.588Z,4.10
2023-11-20T20:02:17.742Z,3.87
2023-11-20T20:03:52.026Z,4.20
2023-11-20T20:05:26.604Z,4.40
2023-11-20T20:07:00.903Z,4.17
2023-11-20T20:08:34.168Z,4.23
2023-11-20T20:10:09.116Z,4.30
2023-11-20T20:11:42.482Z,4.37
2023-11-20T20:13:16.052Z,4.70
2023-11-20T20:14:51.602Z,4.27
2023-11-20T20:16:25.110Z,4.27
2023-11-20T20:17:57.430Z,4.47
2023-11-20T20:19:30.582Z,4.10
2023-11-20T20:21:02.739Z,4.40
2023-11-20T20:22:37.131Z,4.50
2023-11-20T20:24:11.291Z,4.63
2023-11-20T20:25:43.514Z,4.87
2023-11-20T20:27:16.777Z,4.43
2023-11-20T20:28:51.762Z,4.03
2023-11-20T20:30:25.741Z,4.50
2023-11-20T20:31:59.749Z,4.20
2023-11-20T20:33:32.917Z,4.20
2023-11-20T20:35:06.182Z,4.40
2023-11-20T20:36:39.288Z,4.10
2023-11-20T20:38:13.613Z,3.80
2023-11-20T20:39:47.968Z,3.83
2023-11-20T20:41:22.600Z,3.60
2023-11-20T20:42:58.396Z,3.60
2023-11-20T20:44:33.283Z,3.30
2023-11-20T20:46:07.688Z,3.40
2023-11-20T20:47:40.228Z,3.60
2023-11-20T20:49:13.409Z,3.63
2023-11-20T20:50:47.412Z,3.33